createdAt,value
2022-08-12T00:01:26.935Z,69.46
2022-08-12T00:04:52.071Z,70.88
2022-08-12T00:07:59.430Z,69.34
2022-08-12T00:11:09.792Z,69.92
2022-08-12T00:14:18.304Z,70.96
2022-08-12T00:17:24.597Z,72.08
2022-08-12T00:20:30.215Z,71.75
2022-08-12T00:23:39.419Z,72.11
2022-08-12T00:26:45.781Z,71.60
2022-08-12T00:29:52.791Z,71.63
2022-08-12T00:32:59.305Z,72.53
2022-08-12T00:36:32.118Z,72.23
2022-08-12T00:39:37.521Z,72.52
2022-08-12T00:42:25.761Z,71.67
2022-08-12T00:45:12.799Z,71.83
2022-08-12T00:47:59.863Z,70.35
2022-08-12T00:50:49.985Z,69.79
2022-08-12T00:53:38.046Z,68.82
2022-08-12T00:56:27.878Z,68.25
2022-08-12T00:59:16.034Z,67.84
2022-08-12T01:02:12.287Z,67.63
2022-08-12T01:05:39.681Z,67.52
2022-08-12T01:08:49.628Z,67.73
2022-08-12T01:11:37.002Z,68.12
2022-08-12T01:14:25.203Z,69.17
2022-08-12T01:17:13.002Z,69.51
2022-08-12T01:20:07.081Z,70.79
2022-08-12T01:23:27.398Z,71.91
2022-08-12T01:26:21.255Z,73.23
2022-08-12T01:29:13.063Z,73.35
2022-08-12T01:32:08.975Z,72.25
2022-08-12T01:35:14.645Z,70.61
2022-08-12T01:38:05.923Z,70.87
2022-08-12T01:40:58.028Z,70.62
2022-08-12T01:43:46.161Z,70.79
2022-08-12T01:46:52.413Z,71.13
2022-08-12T01:49:39.746Z,70.85
2022-08-12T01:52:39.015Z,69.56
2022-08-12T01:55:33.548Z,70.82
2022-08-12T01:58:57.265Z,72.67
2022-08-12T02:01:47.830Z,74.15
2022-08-12T02:05:10.309Z,75.02
2022-08-12T02:08:37.747Z,75.73
2022-08-12T02:11:31.839Z,76.39
2022-08-12T02:14:40.580Z,76.99
2022-08-12T02:18:00.194Z,77.87
2022-08-12T02:21:00.550Z,77.35
2022-08-12T02:23:49.287Z,77.39
2022-08-12T02:26:40.195Z,79.33
2022-08-12T02:29:27.494Z,80.13
2022-08-12T02:32:15.347Z,81.18
2022-08-12T02:35:02.950Z,83.35
2022-08-12T02:37:55.858Z,83.76
2022-08-12T02:40:44.809Z,83.69
2022-08-12T02:43:55.802Z,83.58
2022-08-12T02:46:49.154Z,84.10
2022-08-12T02:49:44.874Z,85.57
2022-08-12T02:52:34.540Z,85.57
2022-08-12T02:55:28.263Z,85.74
2022-08-12T02:58:21.387Z,85.72
2022-08-12T03:01:25.096Z,85.88
2022-08-12T03:04:30.399Z,86.88
2022-08-12T03:07:32.680Z,87.43
2022-08-12T03:10:41.532Z,87.83
2022-08-12T03:13:39.067Z,89.00
2022-08-12T03:16:30.211Z,90.12
2022-08-12T03:19:21.127Z,91.19
2022-08-12T03:22:14.615Z,92.45
2022-08-12T03:25:05.560Z,93.59
2022-08-12T03:27:58.301Z,94.66
2022-08-12T03:30:49.971Z,95.93
2022-08-12T03:33:48.194Z,96.67
2022-08-12T03:36:48.798Z,96.68
2022-08-12T03:39:38.887Z,96.17
2022-08-12T03:42:40.925Z,95.34
2022-08-12T03:45:51.950Z,94.19
2022-08-12T03:49:01.492Z,93.41
2022-08-12T03:52:07.072Z,93.11
2022-08-12T03:55:13.034Z,93.24
2022-08-12T03:58:21.023Z,93.48
2022-08-12T04:01:08.519Z,93.82
2022-08-12T04:03:55.805Z,94.13
2022-08-12T04:06:47.577Z,94.23
2022-08-12T04:09:36.296Z,94.33
2022-08-12T04:12:45.706Z,94.35
2022-08-12T04:15:33.553Z,94.55
2022-08-12T04:18:21.350Z,95.31
2022-08-12T04:21:11.181Z,96.34
2022-08-12T04:23:58.730Z,96.91
2022-08-12T04:26:45.915Z,97.47
2022-08-12T04:30:32.063Z,97.85
2022-08-12T04:32:44.396Z,98.70
2022-08-12T04:35:31.729Z,99.30
2022-08-12T04:38:20.049Z,100.00
2022-08-12T04:41:07.522Z,100.00
2022-08-12T04:44:02.272Z,100.00
2022-08-12T04:46:49.498Z,100.00
2022-08-12T04:49:36.990Z,100.00
2022-08-12T04:52:24.603Z,100.00
2022-08-12T04:55:12.844Z,100.00
2022-08-12T04:58:00.313Z,100.00
2022-08-12T05:00:47.559Z,100.00
2022-08-12T05:03:46.655Z,100.00
2022-08-12T05:06:34.598Z,100.00
2022-08-12T05:09:21.966Z,100.00
2022-08-12T05:12:09.221Z,100.00
2022-08-12T05:14:56.214Z,100.00
2022-08-12T05:17:43.720Z,100.00
2022-08-12T05:20:30.916Z,100.00
2022-08-12T05:23:20.078Z,100.00
2022-08-12T05:26:07.498Z,100.00
2022-08-12T05:28:54.553Z,100.00
2022-08-12T05:31:48.434Z,100.00
2022-08-12T05:34:35.662Z,100.00
2022-08-12T05:37:23.710Z,100.00
2022-08-12T05:40:11.797Z,100.00
2022-08-12T05:42:58.937Z,100.00
2022-08-12T05:45:47.467Z,100.00
2022-08-12T05:48:34.786Z,100.00
2022-08-12T05:51:39.931Z,100.00
2022-08-12T05:54:47.662Z,100.00
2022-08-12T05:57:35.209Z,99.82
2022-08-12T06:00:25.841Z,98.37
2022-08-12T06:03:14.195Z,96.50
2022-08-12T06:06:01.285Z,95.26
2022-08-12T06:08:53.681Z,93.81
2022-08-12T06:11:54.026Z,91.43
2022-08-12T06:14:55.863Z,89.09
2022-08-12T06:17:43.771Z,86.86
2022-08-12T06:20:34.296Z,84.94
2022-08-12T06:23:21.472Z,83.81
2022-08-12T06:26:11.665Z,82.45
2022-08-12T06:29:00.859Z,80.76
2022-08-12T06:31:50.742Z,79.21
2022-08-12T06:35:26.065Z,78.57
2022-08-12T06:37:51.501Z,77.31
2022-08-12T06:41:05.411Z,75.34
2022-08-12T06:44:06.016Z,73.35
2022-08-12T06:46:55.092Z,70.54
2022-08-12T06:49:45.313Z,69.59
2022-08-12T06:52:32.446Z,68.98
2022-08-12T06:55:20.907Z,66.63
2022-08-12T06:58:10.445Z,66.96
2022-08-12T07:00:59.505Z,68.16
2022-08-12T07:03:47.230Z,67.82
2022-08-12T07:06:34.560Z,68.22
2022-08-12T07:10:06.907Z,66.96
2022-08-12T07:12:30.385Z,64.08
2022-08-12T07:15:20.410Z,61.15
2022-08-12T07:18:13.337Z,65.36
2022-08-12T07:21:04.154Z,62.78
2022-08-12T07:23:51.154Z,63.85
2022-08-12T07:26:44.310Z,63.43
2022-08-12T07:29:57.897Z,63.20
2022-08-12T07:32:38.724Z,61.01
2022-08-12T07:35:25.764Z,58.34
2022-08-12T07:38:42.368Z,57.77
2022-08-12T07:41:31.911Z,54.83
2022-08-12T07:44:19.022Z,56.44
2022-08-12T07:47:08.107Z,58.65
2022-08-12T07:50:05.745Z,59.61
2022-08-12T07:52:53.376Z,59.13
2022-08-12T07:55:40.433Z,53.21
2022-08-12T07:58:27.422Z,54.21
2022-08-12T08:01:17.613Z,58.03
2022-08-12T08:04:24.030Z,54.09
2022-08-12T08:07:11.542Z,50.04
2022-08-12T08:10:00.925Z,54.84
2022-08-12T08:12:53.848Z,53.31
2022-08-12T08:16:02.508Z,49.79
2022-08-12T08:18:49.655Z,52.53
2022-08-12T08:21:36.866Z,46.55
2022-08-12T08:24:27.006Z,45.02
2022-08-12T08:27:14.013Z,44.37
2022-08-12T08:30:02.501Z,44.58
2022-08-12T08:32:49.930Z,45.80
2022-08-12T08:35:46.254Z,44.04
2022-08-12T08:38:35.465Z,43.85
2022-08-12T08:42:16.578Z,43.61
2022-08-12T08:44:53.964Z,41.76
2022-08-12T08:47:46.394Z,41.66
2022-08-12T08:50:33.599Z,40.09
2022-08-12T08:53:20.691Z,38.62
2022-08-12T08:56:11.083Z,37.87
2022-08-12T08:59:00.238Z,40.22
2022-08-12T09:01:47.994Z,37.01
2022-08-12T09:05:12.171Z,37.12
2022-08-12T09:14:11.530Z,34.66
2022-08-12T09:16:59.754Z,34.51
2022-08-12T09:19:46.966Z,34.29
2022-08-12T09:22:35.131Z,35.39
2022-08-12T09:25:26.389Z,36.28
2022-08-12T09:28:30.883Z,34.38
2022-08-12T09:32:08.006Z,33.85
2022-08-12T09:34:33.617Z,33.49
2022-08-12T09:37:28.387Z,33.20
2022-08-12T09:40:57.533Z,31.83
2022-08-12T09:44:05.435Z,32.48
2022-08-12T09:46:52.714Z,31.93
2022-08-12T09:49:42.521Z,29.97
2022-08-12T09:52:32.160Z,32.19
2022-08-12T09:56:05.799Z,30.37
2022-08-12T09:58:57.354Z,31.01
2022-08-12T10:02:42.704Z,31.07
2022-08-12T10:04:51.562Z,29.91
2022-08-12T10:07:40.685Z,29.75
2022-08-12T10:10:30.159Z,29.70
2022-08-12T10:13:41.816Z,29.70
2022-08-12T10:16:36.811Z,29.90
2022-08-12T10:19:36.773Z,28.86
2022-08-12T10:22:39.215Z,28.08
2022-08-12T10:26:18.346Z,28.67
2022-08-12T10:29:15.760Z,28.31
2022-08-12T10:32:44.654Z,29.02
2022-08-12T10:35:38.268Z,27.88
2022-08-12T10:38:34.992Z,28.49
2022-08-12T10:41:57.893Z,28.30
2022-08-12T10:44:46.918Z,27.68
2022-08-12T10:48:19.898Z,28.98
2022-08-12T10:51:01.998Z,28.35
2022-08-12T10:53:52.737Z,27.87
2022-08-12T10:56:40.630Z,27.82
2022-08-12T11:00:35.980Z,28.25
2022-08-12T11:04:27.480Z,28.24
2022-08-12T11:07:06.727Z,27.57
2022-08-12T11:09:07.229Z,28.38
2022-08-12T11:12:34.838Z,28.80
2022-08-12T11:15:19.219Z,27.72
2022-08-12T11:18:18.538Z,27.98
2022-08-12T11:21:06.318Z,27.54
2022-08-12T11:23:53.531Z,26.71
2022-08-12T11:26:41.013Z,26.45
2022-08-12T11:30:02.581Z,26.99
2022-08-12T11:32:39.024Z,25.93
2022-08-12T11:35:29.528Z,25.53
2022-08-12T11:38:20.289Z,26.26
2022-08-12T11:41:07.557Z,26.31
2022-08-12T11:43:58.312Z,25.91
2022-08-12T11:46:45.876Z,26.06
2022-08-12T11:49:38.560Z,25.94
2022-08-12T11:52:54.953Z,26.69
2022-08-12T11:55:33.157Z,26.47
2022-08-12T11:59:27.529Z,26.17
2022-08-12T12:02:02.556Z,26.23
2022-08-12T12:04:35.041Z,25.98
2022-08-12T12:07:33.711Z,26.09
2022-08-12T12:10:29.866Z,26.24
2022-08-12T12:14:05.362Z,26.80
2022-08-12T12:16:24.781Z,27.07
2022-08-12T12:19:11.825Z,25.56
2022-08-12T12:21:58.805Z,25.48
2022-08-12T12:24:50.886Z,26.21
2022-08-12T12:28:05.375Z,26.12
2022-08-12T12:30:54.492Z,25.34
2022-08-12T12:33:56.854Z,25.36
2022-08-12T12:36:48.978Z,25.72
2022-08-12T12:39:54.678Z,25.55
2022-08-12T12:42:55.832Z,25.45
2022-08-12T12:45:47.432Z,25.05
2022-08-12T12:48:34.376Z,26.62
2022-08-12T12:51:22.226Z,25.64
2022-08-12T12:54:29.149Z,25.69
2022-08-12T12:57:16.820Z,25.94
2022-08-12T13:00:15.434Z,25.44
2022-08-12T13:03:02.498Z,27.41
2022-08-12T13:05:53.731Z,25.11
2022-08-12T13:08:41.009Z,25.65
2022-08-12T13:11:42.261Z,24.65
2022-08-12T13:14:35.182Z,25.48
2022-08-12T13:17:26.596Z,24.68
2022-08-12T13:20:37.872Z,24.87
2022-08-12T13:23:35.897Z,25.77
2022-08-12T13:26:23.572Z,24.94
2022-08-12T13:29:13.022Z,25.48
2022-08-12T13:32:18.675Z,25.65
2022-08-12T13:35:19.999Z,25.43
2022-08-12T13:38:26.869Z,26.05
2022-08-12T13:41:34.346Z,25.43
2022-08-12T13:44:22.821Z,25.46
2022-08-12T13:47:12.383Z,25.53
2022-08-12T13:50:09.467Z,25.84
2022-08-12T13:52:57.178Z,25.16
2022-08-12T13:55:46.203Z,25.14
2022-08-12T13:58:37.437Z,24.99
2022-08-12T14:01:24.402Z,25.69
2022-08-12T14:04:12.392Z,25.78
2022-08-12T14:07:02.913Z,25.77
2022-08-12T14:10:09.246Z,26.26
2022-08-12T14:12:57.819Z,26.40
2022-08-12T14:15:53.052Z,26.41
2022-08-12T14:18:42.211Z,25.95
2022-08-12T14:21:30.106Z,25.90
2022-08-12T14:24:40.464Z,26.26
2022-08-12T14:28:02.622Z,26.74
2022-08-12T14:30:36.445Z,25.90
2022-08-12T14:33:25.213Z,26.81
2022-08-12T14:36:12.834Z,26.17
2022-08-12T14:39:00.171Z,25.95
2022-08-12T14:41:57.150Z,25.99
2022-08-12T14:44:57.505Z,25.95
2022-08-12T14:47:53.719Z,25.58
2022-08-12T14:51:03.139Z,25.19
2022-08-12T14:55:50.775Z,25.12
2022-08-12T14:57:20.691Z,25.12
2022-08-12T15:00:30.224Z,26.47
2022-08-12T15:03:17.358Z,25.92
2022-08-12T15:06:44.490Z,25.37
2022-08-12T15:09:16.392Z,25.79
2022-08-12T15:12:04.434Z,25.70
2022-08-12T15:14:53.847Z,25.81
2022-08-12T15:17:40.935Z,25.79
2022-08-12T15:20:32.978Z,26.62
2022-08-12T15:23:29.304Z,26.28
2022-08-12T15:26:21.252Z,26.86
2022-08-12T15:29:16.951Z,25.48
2022-08-12T15:32:10.651Z,25.89
2022-08-12T15:34:58.467Z,27.52
2022-08-12T15:38:10.519Z,26.55
2022-08-12T15:40:53.377Z,26.13
2022-08-12T15:44:16.925Z,25.66
2022-08-12T15:46:48.070Z,25.76
2022-08-12T15:49:43.050Z,27.59
2022-08-12T15:52:42.257Z,25.58
2022-08-12T15:55:33.809Z,25.11
2022-08-12T15:58:21.893Z,25.40
2022-08-12T16:01:15.065Z,25.58
2022-08-12T16:04:02.171Z,26.39
2022-08-12T16:07:05.802Z,26.59
2022-08-12T16:10:06.647Z,25.99
2022-08-12T16:12:57.838Z,25.46
2022-08-12T16:15:51.126Z,27.18
2022-08-12T16:18:49.978Z,26.03
2022-08-12T16:21:52.095Z,25.98
2022-08-12T16:24:48.001Z,26.11
2022-08-12T16:27:41.887Z,26.23
2022-08-12T16:30:34.241Z,25.49
2022-08-12T16:33:58.840Z,26.81
2022-08-12T16:36:46.002Z,24.58
2022-08-12T16:39:57.339Z,25.62
2022-08-12T16:42:53.940Z,25.19
2022-08-12T16:46:23.445Z,24.87
2022-08-12T16:48:56.365Z,25.41
2022-08-12T16:51:45.987Z,26.00
2022-08-12T16:54:36.331Z,27.79
2022-08-12T16:57:35.129Z,28.15
2022-08-12T17:00:24.150Z,28.28
2022-08-12T17:03:12.779Z,30.02
2022-08-12T17:06:19.728Z,28.64
2022-08-12T17:09:17.294Z,29.30
2022-08-12T17:12:05.587Z,29.17
2022-08-12T17:14:53.028Z,30.11
2022-08-12T17:17:42.144Z,28.86
2022-08-12T17:20:37.441Z,28.77
2022-08-12T17:23:28.594Z,28.96
2022-08-12T17:26:37.234Z,30.09
2022-08-12T17:30:00.348Z,30.66
2022-08-12T17:32:35.919Z,29.56
2022-08-12T17:35:37.543Z,31.97
2022-08-12T17:38:30.591Z,31.45
2022-08-12T17:41:22.431Z,32.34
2022-08-12T17:44:10.450Z,34.02
2022-08-12T17:47:01.233Z,33.31
2022-08-12T17:50:02.375Z,33.33
2022-08-12T17:52:51.937Z,33.17
2022-08-12T17:55:48.194Z,34.14
2022-08-12T17:58:38.143Z,35.57
2022-08-12T18:01:25.602Z,33.08
2022-08-12T18:04:22.194Z,36.48
2022-08-12T18:07:23.713Z,34.95
2022-08-12T18:10:35.914Z,37.01
2022-08-12T18:13:40.307Z,36.02
2022-08-12T18:16:29.570Z,35.69
2022-08-12T18:19:17.622Z,36.27
2022-08-12T18:22:05.412Z,38.83
2022-08-12T18:25:02.401Z,38.37
2022-08-12T18:28:16.205Z,40.04
2022-08-12T18:31:03.388Z,40.08
2022-08-12T18:33:52.452Z,39.94
2022-08-12T18:36:40.841Z,41.21
2022-08-12T18:39:57.758Z,41.37
2022-08-12T18:42:54.408Z,42.06
2022-08-12T18:45:47.163Z,41.83
2022-08-12T18:48:44.350Z,42.32
2022-08-12T18:51:34.155Z,42.17
2022-08-12T18:54:36.245Z,42.72
2022-08-12T18:58:06.118Z,43.22
2022-08-12T19:00:34.252Z,45.22
2022-08-12T19:03:39.143Z,44.30
2022-08-12T19:06:35.683Z,45.39
2022-08-12T19:09:57.465Z,45.13
2022-08-12T19:13:03.268Z,45.14
2022-08-12T19:15:57.402Z,44.95
2022-08-12T19:18:46.415Z,44.59
2022-08-12T19:21:39.405Z,44.45
2022-08-12T19:24:46.581Z,44.67
2022-08-12T19:27:34.602Z,44.96
2022-08-12T19:30:55.543Z,45.00
2022-08-12T19:33:52.103Z,45.23
2022-08-12T19:36:50.426Z,44.82
2022-08-12T19:40:08.669Z,44.78
2022-08-12T19:42:53.489Z,44.82
2022-08-12T19:45:48.888Z,44.64
2022-08-12T19:48:37.434Z,45.03
2022-08-12T19:51:35.874Z,45.79
2022-08-12T19:54:23.115Z,46.18
2022-08-12T19:57:18.858Z,46.07
2022-08-12T20:00:07.901Z,46.35
2022-08-12T20:03:00.432Z,46.17
2022-08-12T20:06:06.898Z,46.51
2022-08-12T20:08:57.294Z,46.98
2022-08-12T20:12:12.526Z,47.13
2022-08-12T20:14:53.418Z,47.56
2022-08-12T20:17:50.492Z,48.05
2022-08-12T20:20:39.042Z,48.28
2022-08-12T20:23:50.770Z,48.16
2022-08-12T20:26:41.827Z,48.48
2022-08-12T20:29:35.582Z,48.57
2022-08-12T20:32:29.418Z,49.60
2022-08-12T20:35:18.275Z,49.87
2022-08-12T20:38:26.612Z,49.88
2022-08-12T20:41:16.183Z,50.09
2022-08-12T20:44:03.633Z,50.04
2022-08-12T20:46:50.667Z,50.63
2022-08-12T20:49:42.081Z,50.81
2022-08-12T20:52:34.142Z,50.76
2022-08-12T20:55:22.218Z,51.27
2022-08-12T20:58:30.373Z,51.90
2022-08-12T21:01:23.835Z,52.14
2022-08-12T21:04:56.467Z,52.14
2022-08-12T21:07:51.643Z,52.08
2022-08-12T21:10:38.930Z,51.78
2022-08-12T21:13:29.596Z,51.58
2022-08-12T21:16:35.503Z,51.50
2022-08-12T21:19:52.091Z,51.93
2022-08-12T21:22:35.020Z,51.77
2022-08-12T21:25:25.582Z,51.86
2022-08-12T21:28:30.886Z,52.14
2022-08-12T21:32:36.761Z,52.38
2022-08-12T21:34:29.286Z,53.00
2022-08-12T21:37:27.311Z,53.17
2022-08-12T21:40:15.139Z,53.25
2022-08-12T21:43:04.354Z,53.32
2022-08-12T21:46:00.141Z,53.71
2022-08-12T21:48:49.259Z,55.31
2022-08-12T21:51:50.252Z,56.87
2022-08-12T21:54:42.664Z,57.94
2022-08-12T21:57:36.364Z,58.91
2022-08-12T22:00:40.174Z,60.83
2022-08-12T22:04:02.937Z,61.34
2022-08-12T22:06:55.786Z,61.16
2022-08-12T22:09:46.327Z,60.98
2022-08-12T22:12:34.782Z,60.83
2022-08-12T22:15:24.857Z,60.27
2022-08-12T22:18:13.030Z,60.90
2022-08-12T22:21:03.114Z,61.40
2022-08-12T22:24:04.067Z,61.55
2022-08-12T22:26:52.433Z,62.43
2022-08-12T22:29:57.710Z,63.42
2022-08-12T22:32:50.711Z,63.84
2022-08-12T22:35:55.844Z,63.54
2022-08-12T22:38:46.595Z,63.92
2022-08-12T22:41:57.004Z,63.61
2022-08-12T22:45:03.185Z,62.95
2022-08-12T22:47:55.672Z,63.04
2022-08-12T22:50:43.200Z,62.24
2022-08-12T22:53:36.208Z,61.57
2022-08-12T22:56:31.049Z,60.79
2022-08-12T22:59:18.549Z,61.13
2022-08-12T23:02:09.480Z,61.27
2022-08-12T23:04:58.750Z,61.57
2022-08-12T23:07:58.763Z,61.78
2022-08-12T23:10:47.667Z,62.02
2022-08-12T23:13:55.200Z,62.46
2022-08-12T23:16:43.191Z,62.46
2022-08-12T23:19:36.108Z,62.28
2022-08-12T23:23:05.899Z,63.24
2022-08-12T23:25:54.361Z,63.82
2022-08-12T23:28:59.428Z,64.59
2022-08-12T23:32:02.819Z,65.27
2022-08-12T23:34:50.961Z,65.46
2022-08-12T23:37:47.460Z,65.40
2022-08-12T23:40:40.693Z,65.19
2022-08-12T23:43:39.573Z,65.16
2022-08-12T23:46:27.995Z,64.59
2022-08-12T23:49:55.815Z,64.58
2022-08-12T23:52:21.977Z,64.43
2022-08-12T23:55:24.750Z,64.33
2022-08-12T23:58:22.497Z,64.14
